sensor_id;sensor_type;location;lat;lon;timestamp;P1;durP1;ratioP1;P2;durP2;ratioP2
48028;SDS011;33808;37.368;127.108;2022-12-11T00:01:21;17.88;;;10.05;;
48028;SDS011;33808;37.368;127.108;2022-12-11T00:03:51;22.20;;;10.80;;
48028;SDS011;33808;37.368;127.108;2022-12-11T00:06:21;21.42;;;10.70;;
48028;SDS011;33808;37.368;127.108;2022-12-11T00:08:52;21.25;;;11.38;;
48028;SDS011;33808;37.368;127.108;2022-12-11T00:11:23;18.92;;;10.45;;
48028;SDS011;33808;37.368;127.108;2022-12-11T00:13:52;17.48;;;10.00;;
48028;SDS011;33808;37.368;127.108;2022-12-11T00:16:22;21.13;;;10.80;;
48028;SDS011;33808;37.368;127.108;2022-12-11T00:18:53;19.75;;;10.27;;
48028;SDS011;33808;37.368;127.108;2022-12-11T00:21:23;18.38;;;10.25;;
48028;SDS011;33808;37.368;127.108;2022-12-11T00:23:53;18.13;;;10.48;;
48028;SDS011;33808;37.368;127.108;2022-12-11T00:26:22;17.58;;;10.32;;
48028;SDS011;33808;37.368;127.108;2022-12-11T00:28:53;19.38;;;10.35;;
48028;SDS011;33808;37.368;127.108;2022-12-11T00:31:24;19.17;;;10.05;;
48028;SDS011;33808;37.368;127.108;2022-12-11T00:33:53;19.77;;;9.85;;
48028;SDS011;33808;37.368;127.108;2022-12-11T00:36:24;17.92;;;10.45;;
48028;SDS011;33808;37.368;127.108;2022-12-11T00:38:54;20.90;;;11.10;;
48028;SDS011;33808;37.368;127.108;2022-12-11T00:41:24;17.63;;;10.20;;
48028;SDS011;33808;37.368;127.108;2022-12-11T00:43:53;18.58;;;10.57;;
48028;SDS011;33808;37.368;127.108;2022-12-11T00:46:23;21.55;;;10.57;;
48028;SDS011;33808;37.368;127.108;2022-12-11T00:48:53;21.33;;;10.75;;
48028;SDS011;33808;37.368;127.108;2022-12-11T00:51:22;18.75;;;10.38;;
48028;SDS011;33808;37.368;127.108;2022-12-11T00:53:53;18.02;;;9.95;;
48028;SDS011;33808;37.368;127.108;2022-12-11T00:56:22;19.63;;;10.57;;
48028;SDS011;33808;37.368;127.108;2022-12-11T00:58:52;20.35;;;10.75;;
48028;SDS011;33808;37.368;127.108;2022-12-11T01:01:22;18.25;;;10.45;;
48028;SDS011;33808;37.368;127.108;2022-12-11T01:03:53;23.13;;;10.73;;
48028;SDS011;33808;37.368;127.108;2022-12-11T01:06:23;19.55;;;10.88;;
48028;SDS011;33808;37.368;127.108;2022-12-11T01:08:55;21.15;;;11.10;;
48028;SDS011;33808;37.368;127.108;2022-12-11T01:11:43;20.60;;;10.90;;
48028;SDS011;33808;37.368;127.108;2022-12-11T01:14:12;18.33;;;10.45;;
48028;SDS011;33808;37.368;127.108;2022-12-11T01:16:42;19.05;;;10.50;;
48028;SDS011;33808;37.368;127.108;2022-12-11T01:19:12;18.55;;;10.60;;
48028;SDS011;33808;37.368;127.108;2022-12-11T01:21:42;23.00;;;11.27;;
48028;SDS011;33808;37.368;127.108;2022-12-11T01:24:11;16.88;;;10.65;;
48028;SDS011;33808;37.368;127.108;2022-12-11T01:26:41;16.98;;;11.02;;
48028;SDS011;33808;37.368;127.108;2022-12-11T01:29:11;19.05;;;11.57;;
48028;SDS011;33808;37.368;127.108;2022-12-11T01:31:40;20.30;;;11.07;;
48028;SDS011;33808;37.368;127.108;2022-12-11T01:34:10;19.58;;;11.00;;
48028;SDS011;33808;37.368;127.108;2022-12-11T01:36:40;19.85;;;11.27;;
48028;SDS011;33808;37.368;127.108;2022-12-11T01:39:09;19.77;;;10.82;;
48028;SDS011;33808;37.368;127.108;2022-12-11T01:41:39;21.52;;;11.02;;
48028;SDS011;33808;37.368;127.108;2022-12-11T01:46:44;18.83;;;10.32;;
48028;SDS011;33808;37.368;127.108;2022-12-11T01:49:14;22.67;;;10.13;;
48028;SDS011;33808;37.368;127.108;2022-12-11T01:51:54;22.00;;;11.18;;
48028;SDS011;33808;37.368;127.108;2022-12-11T01:54:27;21.08;;;10.45;;
48028;SDS011;33808;37.368;127.108;2022-12-11T01:56:58;22.02;;;11.85;;
48028;SDS011;33808;37.368;127.108;2022-12-11T01:59:32;22.27;;;11.32;;
48028;SDS011;33808;37.368;127.108;2022-12-11T02:02:06;25.10;;;11.77;;
48028;SDS011;33808;37.368;127.108;2022-12-11T02:04:37;18.90;;;10.20;;
48028;SDS011;33808;37.368;127.108;2022-12-11T02:07:08;22.23;;;11.40;;
48028;SDS011;33808;37.368;127.108;2022-12-11T02:09:38;18.48;;;10.20;;
48028;SDS011;33808;37.368;127.108;2022-12-11T02:12:30;21.38;;;10.57;;
48028;SDS011;33808;37.368;127.108;2022-12-11T02:15:30;19.20;;;10.15;;
48028;SDS011;33808;37.368;127.108;2022-12-11T02:18:16;15.10;;;10.05;;
48028;SDS011;33808;37.368;127.108;2022-12-11T02:21:01;16.02;;;9.77;;
48028;SDS011;33808;37.368;127.108;2022-12-11T02:23:41;28.65;;;14.88;;
48028;SDS011;33808;37.368;127.108;2022-12-11T02:26:44;21.48;;;11.25;;
48028;SDS011;33808;37.368;127.108;2022-12-11T02:29:45;20.17;;;10.82;;
48028;SDS011;33808;37.368;127.108;2022-12-11T02:32:18;22.17;;;11.63;;
48028;SDS011;33808;37.368;127.108;2022-12-11T02:37:46;19.90;;;11.35;;
48028;SDS011;33808;37.368;127.108;2022-12-11T02:40:20;17.85;;;10.35;;
48028;SDS011;33808;37.368;127.108;2022-12-11T02:42:53;17.60;;;9.55;;
48028;SDS011;33808;37.368;127.108;2022-12-11T02:45:28;18.77;;;11.18;;
48028;SDS011;33808;37.368;127.108;2022-12-11T02:48:00;22.42;;;10.43;;
48028;SDS011;33808;37.368;127.108;2022-12-11T02:50:33;19.17;;;9.57;;
48028;SDS011;33808;37.368;127.108;2022-12-11T02:53:06;18.98;;;10.07;;
48028;SDS011;33808;37.368;127.108;2022-12-11T03:01:24;17.33;;;10.80;;
48028;SDS011;33808;37.368;127.108;2022-12-11T03:03:55;20.30;;;10.35;;
48028;SDS011;33808;37.368;127.108;2022-12-11T03:06:27;22.17;;;10.95;;
48028;SDS011;33808;37.368;127.108;2022-12-11T03:09:03;22.27;;;10.30;;
48028;SDS011;33808;37.368;127.108;2022-12-11T03:11:35;16.10;;;9.30;;
48028;SDS011;33808;37.368;127.108;2022-12-11T03:14:04;18.98;;;9.30;;
48028;SDS011;33808;37.368;127.108;2022-12-11T03:16:37;22.92;;;10.70;;
48028;SDS011;33808;37.368;127.108;2022-12-11T03:19:20;18.20;;;9.93;;
48028;SDS011;33808;37.368;127.108;2022-12-11T03:22:17;20.95;;;10.15;;
48028;SDS011;33808;37.368;127.108;2022-12-11T03:24:59;17.52;;;10.02;;
48028;SDS011;33808;37.368;127.108;2022-12-11T03:27:47;23.50;;;10.60;;
48028;SDS011;33808;37.368;127.108;2022-12-11T03:32:43;19.08;;;9.43;;
48028;SDS011;33808;37.368;127.108;2022-12-11T03:35:24;18.20;;;10.15;;
48028;SDS011;33808;37.368;127.108;2022-12-11T03:37:54;18.27;;;10.27;;
48028;SDS011;33808;37.368;127.108;2022-12-11T03:42:59;21.90;;;9.88;;
48028;SDS011;33808;37.368;127.108;2022-12-11T03:45:29;20.55;;;9.95;;
48028;SDS011;33808;37.368;127.108;2022-12-11T03:48:01;18.33;;;9.70;;
48028;SDS011;33808;37.368;127.108;2022-12-11T03:50:31;17.88;;;9.32;;
48028;SDS011;33808;37.368;127.108;2022-12-11T03:53:03;16.55;;;9.90;;
48028;SDS011;33808;37.368;127.108;2022-12-11T03:55:33;18.30;;;9.88;;
48028;SDS011;33808;37.368;127.108;2022-12-11T03:58:06;18.23;;;9.63;;
48028;SDS011;33808;37.368;127.108;2022-12-11T04:00:35;16.40;;;10.18;;
48028;SDS011;33808;37.368;127.108;2022-12-11T04:03:05;17.58;;;10.05;;
48028;SDS011;33808;37.368;127.108;2022-12-11T04:05:44;21.10;;;11.23;;
48028;SDS011;33808;37.368;127.108;2022-12-11T04:08:16;17.73;;;9.88;;
48028;SDS011;33808;37.368;127.108;2022-12-11T04:10:49;20.17;;;9.57;;
48028;SDS011;33808;37.368;127.108;2022-12-11T04:13:37;21.58;;;10.07;;
48028;SDS011;33808;37.368;127.108;2022-12-11T04:16:08;19.60;;;10.77;;
48028;SDS011;33808;37.368;127.108;2022-12-11T04:18:38;17.42;;;9.65;;
48028;SDS011;33808;37.368;127.108;2022-12-11T04:21:25;18.45;;;9.73;;
48028;SDS011;33808;37.368;127.108;2022-12-11T04:24:13;16.33;;;9.85;;
48028;SDS011;33808;37.368;127.108;2022-12-11T04:26:46;16.63;;;10.10;;
48028;SDS011;33808;37.368;127.108;2022-12-11T04:29:15;19.00;;;10.05;;
48028;SDS011;33808;37.368;127.108;2022-12-11T04:31:45;16.02;;;9.27;;
48028;SDS011;33808;37.368;127.108;2022-12-11T04:34:15;19.08;;;9.13;;
48028;SDS011;33808;37.368;127.108;2022-12-11T04:36:44;14.88;;;9.23;;
48028;SDS011;33808;37.368;127.108;2022-12-11T04:39:14;17.67;;;9.52;;
48028;SDS011;33808;37.368;127.108;2022-12-11T04:41:44;19.90;;;10.73;;
48028;SDS011;33808;37.368;127.108;2022-12-11T04:44:13;18.58;;;9.85;;
48028;SDS011;33808;37.368;127.108;2022-12-11T04:46:43;16.73;;;9.00;;
48028;SDS011;33808;37.368;127.108;2022-12-11T04:49:12;16.63;;;8.85;;
48028;SDS011;33808;37.368;127.108;2022-12-11T04:51:42;14.88;;;8.82;;
48028;SDS011;33808;37.368;127.108;2022-12-11T04:54:12;15.82;;;9.38;;
48028;SDS011;33808;37.368;127.108;2022-12-11T04:56:41;15.02;;;8.73;;
48028;SDS011;33808;37.368;127.108;2022-12-11T04:59:11;19.25;;;9.75;;
48028;SDS011;33808;37.368;127.108;2022-12-11T05:01:40;17.88;;;8.55;;
48028;SDS011;33808;37.368;127.108;2022-12-11T05:04:10;16.20;;;8.98;;
48028;SDS011;33808;37.368;127.108;2022-12-11T05:06:40;19.52;;;9.18;;
48028;SDS011;33808;37.368;127.108;2022-12-11T05:09:10;15.25;;;8.40;;
48028;SDS011;33808;37.368;127.108;2022-12-11T05:11:40;17.15;;;8.85;;
48028;SDS011;33808;37.368;127.108;2022-12-11T05:14:10;15.90;;;9.23;;
48028;SDS011;33808;37.368;127.108;2022-12-11T05:16:39;18.08;;;9.57;;
48028;SDS011;33808;37.368;127.108;2022-12-11T05:19:09;14.45;;;8.18;;
48028;SDS011;33808;37.368;127.108;2022-12-11T05:21:39;16.13;;;8.77;;
48028;SDS011;33808;37.368;127.108;2022-12-11T05:24:09;16.45;;;7.72;;
48028;SDS011;33808;37.368;127.108;2022-12-11T05:26:38;14.50;;;8.57;;
48028;SDS011;33808;37.368;127.108;2022-12-11T05:29:08;15.32;;;8.40;;
48028;SDS011;33808;37.368;127.108;2022-12-11T05:31:37;15.82;;;8.07;;
48028;SDS011;33808;37.368;127.108;2022-12-11T05:34:07;12.73;;;8.05;;
48028;SDS011;33808;37.368;127.108;2022-12-11T05:36:37;13.35;;;8.15;;
48028;SDS011;33808;37.368;127.108;2022-12-11T05:39:06;17.33;;;8.85;;
48028;SDS011;33808;37.368;127.108;2022-12-11T05:41:36;15.63;;;7.85;;
48028;SDS011;33808;37.368;127.108;2022-12-11T05:44:06;16.35;;;8.00;;
48028;SDS011;33808;37.368;127.108;2022-12-11T05:46:38;16.23;;;8.07;;
48028;SDS011;33808;37.368;127.108;2022-12-11T05:49:09;13.10;;;7.88;;
48028;SDS011;33808;37.368;127.108;2022-12-11T05:51:39;15.02;;;7.63;;
48028;SDS011;33808;37.368;127.108;2022-12-11T05:54:09;14.15;;;8.02;;
48028;SDS011;33808;37.368;127.108;2022-12-11T05:56:39;13.73;;;8.25;;
48028;SDS011;33808;37.368;127.108;2022-12-11T05:59:08;17.73;;;8.48;;
48028;SDS011;33808;37.368;127.108;2022-12-11T06:01:39;14.55;;;8.10;;
48028;SDS011;33808;37.368;127.108;2022-12-11T06:04:10;13.88;;;7.53;;
48028;SDS011;33808;37.368;127.108;2022-12-11T06:06:40;12.88;;;7.38;;
48028;SDS011;33808;37.368;127.108;2022-12-11T06:09:14;17.08;;;8.05;;
48028;SDS011;33808;37.368;127.108;2022-12-11T06:11:44;12.30;;;7.07;;
48028;SDS011;33808;37.368;127.108;2022-12-11T06:14:14;13.63;;;7.65;;
48028;SDS011;33808;37.368;127.108;2022-12-11T06:16:44;12.73;;;7.07;;
48028;SDS011;33808;37.368;127.108;2022-12-11T06:19:14;13.55;;;7.22;;
48028;SDS011;33808;37.368;127.108;2022-12-11T06:21:45;13.25;;;7.53;;
48028;SDS011;33808;37.368;127.108;2022-12-11T06:24:16;13.68;;;7.50;;
48028;SDS011;33808;37.368;127.108;2022-12-11T06:26:45;13.95;;;7.57;;
48028;SDS011;33808;37.368;127.108;2022-12-11T06:29:15;12.75;;;7.05;;
48028;SDS011;33808;37.368;127.108;2022-12-11T06:31:45;13.43;;;7.35;;
48028;SDS011;33808;37.368;127.108;2022-12-11T06:34:14;13.43;;;7.43;;
48028;SDS011;33808;37.368;127.108;2022-12-11T06:36:44;12.75;;;6.43;;
48028;SDS011;33808;37.368;127.108;2022-12-11T06:39:13;10.98;;;6.78;;
48028;SDS011;33808;37.368;127.108;2022-12-11T06:41:43;13.10;;;7.30;;
48028;SDS011;33808;37.368;127.108;2022-12-11T06:44:13;14.57;;;6.97;;
48028;SDS011;33808;37.368;127.108;2022-12-11T06:46:42;12.50;;;6.80;;
48028;SDS011;33808;37.368;127.108;2022-12-11T06:49:12;12.80;;;6.72;;
48028;SDS011;33808;37.368;127.108;2022-12-11T06:51:41;15.93;;;6.60;;
48028;SDS011;33808;37.368;127.108;2022-12-11T06:54:11;12.10;;;6.10;;
48028;SDS011;33808;37.368;127.108;2022-12-11T06:56:40;16.25;;;7.05;;
48028;SDS011;33808;37.368;127.108;2022-12-11T06:59:10;13.90;;;6.53;;
48028;SDS011;33808;37.368;127.108;2022-12-11T07:01:40;9.35;;;5.90;;
48028;SDS011;33808;37.368;127.108;2022-12-11T07:04:10;12.85;;;6.57;;
48028;SDS011;33808;37.368;127.108;2022-12-11T07:06:39;11.13;;;5.80;;
48028;SDS011;33808;37.368;127.108;2022-12-11T07:09:09;12.27;;;5.68;;
48028;SDS011;33808;37.368;127.108;2022-12-11T07:11:38;9.68;;;6.13;;
48028;SDS011;33808;37.368;127.108;2022-12-11T07:14:08;10.77;;;5.82;;
48028;SDS011;33808;37.368;127.108;2022-12-11T07:16:38;11.80;;;6.18;;
48028;SDS011;33808;37.368;127.108;2022-12-11T07:19:07;14.48;;;6.35;;
48028;SDS011;33808;37.368;127.108;2022-12-11T07:21:37;9.15;;;5.80;;
48028;SDS011;33808;37.368;127.108;2022-12-11T07:24:06;11.68;;;6.25;;
48028;SDS011;33808;37.368;127.108;2022-12-11T07:26:36;10.82;;;6.55;;
48028;SDS011;33808;37.368;127.108;2022-12-11T07:29:06;10.75;;;6.35;;
48028;SDS011;33808;37.368;127.108;2022-12-11T07:31:36;12.13;;;6.55;;
48028;SDS011;33808;37.368;127.108;2022-12-11T07:34:06;9.90;;;5.47;;
48028;SDS011;33808;37.368;127.108;2022-12-11T07:36:35;9.25;;;5.15;;
48028;SDS011;33808;37.368;127.108;2022-12-11T07:39:05;12.70;;;6.63;;
48028;SDS011;33808;37.368;127.108;2022-12-11T07:41:36;8.38;;;5.43;;
48028;SDS011;33808;37.368;127.108;2022-12-11T07:44:06;10.68;;;5.80;;
48028;SDS011;33808;37.368;127.108;2022-12-11T07:46:35;10.48;;;5.63;;
48028;SDS011;33808;37.368;127.108;2022-12-11T07:49:05;8.38;;;5.80;;
48028;SDS011;33808;37.368;127.108;2022-12-11T07:51:35;11.73;;;6.07;;
48028;SDS011;33808;37.368;127.108;2022-12-11T07:54:07;9.40;;;5.45;;
48028;SDS011;33808;37.368;127.108;2022-12-11T07:56:47;7.63;;;5.22;;
48028;SDS011;33808;37.368;127.108;2022-12-11T07:59:19;9.00;;;4.95;;
48028;SDS011;33808;37.368;127.108;2022-12-11T08:01:49;10.07;;;5.40;;
48028;SDS011;33808;37.368;127.108;2022-12-11T08:04:19;9.25;;;5.18;;
48028;SDS011;33808;37.368;127.108;2022-12-11T08:06:48;10.10;;;5.88;;
48028;SDS011;33808;37.368;127.108;2022-12-11T08:09:18;10.82;;;5.00;;
48028;SDS011;33808;37.368;127.108;2022-12-11T08:11:50;9.20;;;4.78;;
48028;SDS011;33808;37.368;127.108;2022-12-11T08:14:20;9.57;;;5.00;;
48028;SDS011;33808;37.368;127.108;2022-12-11T08:16:49;9.38;;;4.88;;
48028;SDS011;33808;37.368;127.108;2022-12-11T08:19:19;9.20;;;5.40;;
48028;SDS011;33808;37.368;127.108;2022-12-11T08:21:49;11.00;;;5.20;;
48028;SDS011;33808;37.368;127.108;2022-12-11T08:24:18;11.60;;;4.82;;
48028;SDS011;33808;37.368;127.108;2022-12-11T08:26:48;8.63;;;4.80;;
48028;SDS011;33808;37.368;127.108;2022-12-11T08:29:17;9.70;;;5.07;;
48028;SDS011;33808;37.368;127.108;2022-12-11T08:31:47;7.93;;;4.85;;
48028;SDS011;33808;37.368;127.108;2022-12-11T08:34:17;7.65;;;4.72;;
48028;SDS011;33808;37.368;127.108;2022-12-11T08:36:46;8.48;;;4.68;;
48028;SDS011;33808;37.368;127.108;2022-12-11T08:39:16;9.25;;;5.10;;
48028;SDS011;33808;37.368;127.108;2022-12-11T08:41:46;7.57;;;4.55;;
48028;SDS011;33808;37.368;127.108;2022-12-11T08:44:15;7.93;;;4.78;;
48028;SDS011;33808;37.368;127.108;2022-12-11T08:46:45;8.57;;;4.78;;
48028;SDS011;33808;37.368;127.108;2022-12-11T08:49:15;7.82;;;5.10;;
48028;SDS011;33808;37.368;127.108;2022-12-11T08:51:44;10.82;;;5.03;;
48028;SDS011;33808;37.368;127.108;2022-12-11T08:54:14;9.38;;;5.15;;
48028;SDS011;33808;37.368;127.108;2022-12-11T08:56:43;8.57;;;5.75;;
48028;SDS011;33808;37.368;127.108;2022-12-11T08:59:13;7.85;;;4.97;;
48028;SDS011;33808;37.368;127.108;2022-12-11T09:01:42;6.88;;;4.20;;
48028;SDS011;33808;37.368;127.108;2022-12-11T09:04:12;7.85;;;4.40;;
48028;SDS011;33808;37.368;127.108;2022-12-11T09:06:42;7.75;;;4.50;;
48028;SDS011;33808;37.368;127.108;2022-12-11T09:09:11;8.27;;;4.80;;
48028;SDS011;33808;37.368;127.108;2022-12-11T09:11:42;10.95;;;4.60;;
48028;SDS011;33808;37.368;127.108;2022-12-11T09:14:11;9.40;;;5.10;;
48028;SDS011;33808;37.368;127.108;2022-12-11T09:16:41;8.27;;;4.88;;
48028;SDS011;33808;37.368;127.108;2022-12-11T09:19:11;7.60;;;4.90;;
48028;SDS011;33808;37.368;127.108;2022-12-11T09:21:42;7.30;;;4.60;;
48028;SDS011;33808;37.368;127.108;2022-12-11T09:24:12;9.07;;;4.68;;
48028;SDS011;33808;37.368;127.108;2022-12-11T09:26:42;8.57;;;4.60;;
48028;SDS011;33808;37.368;127.108;2022-12-11T09:29:12;7.78;;;4.63;;
48028;SDS011;33808;37.368;127.108;2022-12-11T09:31:43;9.05;;;4.88;;
48028;SDS011;33808;37.368;127.108;2022-12-11T09:34:13;7.30;;;3.90;;
48028;SDS011;33808;37.368;127.108;2022-12-11T09:36:43;7.88;;;4.55;;
48028;SDS011;33808;37.368;127.108;2022-12-11T09:39:13;10.10;;;4.75;;
48028;SDS011;33808;37.368;127.108;2022-12-11T09:44:55;9.50;;;5.07;;
48028;SDS011;33808;37.368;127.108;2022-12-11T09:47:36;6.97;;;4.47;;
48028;SDS011;33808;37.368;127.108;2022-12-11T09:52:58;8.30;;;4.50;;
48028;SDS011;33808;37.368;127.108;2022-12-11T10:04:04;9.27;;;5.00;;
48028;SDS011;33808;37.368;127.108;2022-12-11T10:12:27;8.98;;;4.97;;
48028;SDS011;33808;37.368;127.108;2022-12-11T10:18:27;9.98;;;4.60;;
48028;SDS011;33808;37.368;127.108;2022-12-11T10:21:00;9.88;;;5.03;;
48028;SDS011;33808;37.368;127.108;2022-12-11T10:23:37;7.75;;;4.55;;
48028;SDS011;33808;37.368;127.108;2022-12-11T10:26:22;9.10;;;4.85;;
48028;SDS011;33808;37.368;127.108;2022-12-11T10:28:51;9.05;;;4.95;;
48028;SDS011;33808;37.368;127.108;2022-12-11T10:34:27;10.15;;;4.78;;
48028;SDS011;33808;37.368;127.108;2022-12-11T10:37:02;7.65;;;4.80;;
48028;SDS011;33808;37.368;127.108;2022-12-11T10:39:31;9.93;;;4.95;;
48028;SDS011;33808;37.368;127.108;2022-12-11T10:42:01;8.82;;;4.85;;
48028;SDS011;33808;37.368;127.108;2022-12-11T10:44:58;7.87;;;4.77;;
48028;SDS011;33808;37.368;127.108;2022-12-11T10:47:30;8.52;;;5.07;;
48028;SDS011;33808;37.368;127.108;2022-12-11T10:50:01;10.65;;;4.72;;
48028;SDS011;33808;37.368;127.108;2022-12-11T10:52:33;9.20;;;4.82;;
48028;SDS011;33808;37.368;127.108;2022-12-11T10:57:52;7.72;;;4.57;;
48028;SDS011;33808;37.368;127.108;2022-12-11T11:00:38;10.30;;;4.82;;
48028;SDS011;33808;37.368;127.108;2022-12-11T11:03:22;10.88;;;4.70;;
48028;SDS011;33808;37.368;127.108;2022-12-11T11:06:01;8.07;;;4.35;;
48028;SDS011;33808;37.368;127.108;2022-12-11T11:08:46;9.63;;;4.95;;
48028;SDS011;33808;37.368;127.108;2022-12-11T11:11:33;10.40;;;5.00;;
48028;SDS011;33808;37.368;127.108;2022-12-11T11:16:49;7.28;;;4.32;;
48028;SDS011;33808;37.368;127.108;2022-12-11T11:21:59;8.20;;;3.97;;
48028;SDS011;33808;37.368;127.108;2022-12-11T11:24:40;8.20;;;4.85;;
48028;SDS011;33808;37.368;127.108;2022-12-11T11:27:35;6.22;;;4.18;;
48028;SDS011;33808;37.368;127.108;2022-12-11T11:30:17;9.35;;;5.15;;
48028;SDS011;33808;37.368;127.108;2022-12-11T11:32:47;8.48;;;4.90;;
48028;SDS011;33808;37.368;127.108;2022-12-11T11:35:21;8.00;;;5.00;;
48028;SDS011;33808;37.368;127.108;2022-12-11T11:52:09;7.65;;;5.15;;
48028;SDS011;33808;37.368;127.108;2022-12-11T11:54:52;9.25;;;4.88;;
48028;SDS011;33808;37.368;127.108;2022-12-11T12:00:31;10.50;;;5.03;;
48028;SDS011;33808;37.368;127.108;2022-12-11T12:05:49;10.43;;;5.38;;
48028;SDS011;33808;37.368;127.108;2022-12-11T12:08:27;8.57;;;4.85;;
48028;SDS011;33808;37.368;127.108;2022-12-11T12:14:12;8.93;;;5.13;;
48028;SDS011;33808;37.368;127.108;2022-12-11T12:45:36;8.75;;;5.35;;
48028;SDS011;33808;37.368;127.108;2022-12-11T12:48:13;9.45;;;5.50;;
48028;SDS011;33808;37.368;127.108;2022-12-11T12:50:45;10.65;;;5.47;;
48028;SDS011;33808;37.368;127.108;2022-12-11T12:53:27;8.43;;;5.35;;
48028;SDS011;33808;37.368;127.108;2022-12-11T12:56:00;11.05;;;5.43;;
48028;SDS011;33808;37.368;127.108;2022-12-11T13:01:08;9.98;;;6.10;;
48028;SDS011;33808;37.368;127.108;2022-12-11T13:06:54;11.13;;;5.30;;
48028;SDS011;33808;37.368;127.108;2022-12-11T13:09:25;10.40;;;5.63;;
48028;SDS011;33808;37.368;127.108;2022-12-11T13:11:56;11.45;;;5.65;;
48028;SDS011;33808;37.368;127.108;2022-12-11T13:14:29;10.00;;;5.03;;
48028;SDS011;33808;37.368;127.108;2022-12-11T13:19:49;10.30;;;5.75;;
48028;SDS011;33808;37.368;127.108;2022-12-11T13:22:31;11.02;;;5.93;;
48028;SDS011;33808;37.368;127.108;2022-12-11T13:25:01;10.93;;;5.57;;
48028;SDS011;33808;37.368;127.108;2022-12-11T13:27:44;10.45;;;6.28;;
48028;SDS011;33808;37.368;127.108;2022-12-11T13:35:33;10.32;;;5.72;;
48028;SDS011;33808;37.368;127.108;2022-12-11T13:38:07;11.02;;;5.43;;
48028;SDS011;33808;37.368;127.108;2022-12-11T13:40:48;13.15;;;6.20;;
48028;SDS011;33808;37.368;127.108;2022-12-11T13:43:23;9.48;;;5.97;;
48028;SDS011;33808;37.368;127.108;2022-12-11T13:45:57;10.27;;;6.32;;
48028;SDS011;33808;37.368;127.108;2022-12-11T13:51:18;10.70;;;6.20;;
48028;SDS011;33808;37.368;127.108;2022-12-11T13:59:50;10.85;;;5.45;;
48028;SDS011;33808;37.368;127.108;2022-12-11T14:02:23;10.50;;;6.07;;
48028;SDS011;33808;37.368;127.108;2022-12-11T14:05:11;12.88;;;6.03;;
48028;SDS011;33808;37.368;127.108;2022-12-11T14:07:46;10.30;;;6.30;;
48028;SDS011;33808;37.368;127.108;2022-12-11T14:10:19;8.65;;;5.25;;
48028;SDS011;33808;37.368;127.108;2022-12-11T14:15:30;12.07;;;5.72;;
48028;SDS011;33808;37.368;127.108;2022-12-11T14:18:03;10.30;;;5.80;;
48028;SDS011;33808;37.368;127.108;2022-12-11T14:20:33;10.02;;;6.28;;
48028;SDS011;33808;37.368;127.108;2022-12-11T14:23:04;10.20;;;5.82;;
48028;SDS011;33808;37.368;127.108;2022-12-11T14:25:33;10.70;;;5.78;;
48028;SDS011;33808;37.368;127.108;2022-12-11T14:28:03;11.90;;;6.63;;
48028;SDS011;33808;37.368;127.108;2022-12-11T14:30:34;13.65;;;5.60;;
48028;SDS011;33808;37.368;127.108;2022-12-11T14:33:06;12.80;;;5.90;;
48028;SDS011;33808;37.368;127.108;2022-12-11T14:35:39;10.38;;;5.97;;
48028;SDS011;33808;37.368;127.108;2022-12-11T14:38:19;10.25;;;6.05;;
48028;SDS011;33808;37.368;127.108;2022-12-11T14:40:55;9.32;;;5.85;;
48028;SDS011;33808;37.368;127.108;2022-12-11T14:43:32;10.05;;;6.20;;
48028;SDS011;33808;37.368;127.108;2022-12-11T14:46:09;12.38;;;6.35;;
48028;SDS011;33808;37.368;127.108;2022-12-11T14:48:53;15.32;;;7.15;;
48028;SDS011;33808;37.368;127.108;2022-12-11T14:51:28;11.52;;;6.35;;
48028;SDS011;33808;37.368;127.108;2022-12-11T14:54:03;13.52;;;5.88;;
48028;SDS011;33808;37.368;127.108;2022-12-11T14:56:35;11.48;;;5.82;;
48028;SDS011;33808;37.368;127.108;2022-12-11T14:59:05;11.63;;;6.28;;
48028;SDS011;33808;37.368;127.108;2022-12-11T15:01:46;13.38;;;6.32;;
48028;SDS011;33808;37.368;127.108;2022-12-11T15:04:45;10.57;;;6.90;;
48028;SDS011;33808;37.368;127.108;2022-12-11T15:07:25;12.95;;;6.20;;
48028;SDS011;33808;37.368;127.108;2022-12-11T15:09:55;11.23;;;5.80;;
48028;SDS011;33808;37.368;127.108;2022-12-11T15:12:25;13.52;;;7.13;;
48028;SDS011;33808;37.368;127.108;2022-12-11T15:14:56;10.15;;;6.05;;
48028;SDS011;33808;37.368;127.108;2022-12-11T15:20:07;13.52;;;6.30;;
48028;SDS011;33808;37.368;127.108;2022-12-11T15:22:47;11.75;;;6.60;;
48028;SDS011;33808;37.368;127.108;2022-12-11T15:25:18;10.93;;;6.22;;
48028;SDS011;33808;37.368;127.108;2022-12-11T15:27:57;12.48;;;6.50;;
48028;SDS011;33808;37.368;127.108;2022-12-11T15:30:29;11.57;;;6.25;;
48028;SDS011;33808;37.368;127.108;2022-12-11T15:33:14;13.23;;;6.25;;
48028;SDS011;33808;37.368;127.108;2022-12-11T15:35:52;12.93;;;7.53;;
48028;SDS011;33808;37.368;127.108;2022-12-11T15:38:27;11.48;;;6.35;;
48028;SDS011;33808;37.368;127.108;2022-12-11T15:41:05;12.00;;;6.32;;
48028;SDS011;33808;37.368;127.108;2022-12-11T15:43:42;10.52;;;6.50;;
48028;SDS011;33808;37.368;127.108;2022-12-11T15:46:12;10.05;;;5.70;;
48028;SDS011;33808;37.368;127.108;2022-12-11T15:48:42;11.57;;;6.65;;
48028;SDS011;33808;37.368;127.108;2022-12-11T15:51:12;12.23;;;6.68;;
48028;SDS011;33808;37.368;127.108;2022-12-11T15:53:41;12.25;;;6.65;;
48028;SDS011;33808;37.368;127.108;2022-12-11T15:56:14;12.68;;;6.88;;
48028;SDS011;33808;37.368;127.108;2022-12-11T15:58:44;12.80;;;7.22;;
48028;SDS011;33808;37.368;127.108;2022-12-11T16:01:16;9.23;;;5.82;;
48028;SDS011;33808;37.368;127.108;2022-12-11T16:03:46;11.77;;;6.65;;
48028;SDS011;33808;37.368;127.108;2022-12-11T16:06:17;10.63;;;6.38;;
48028;SDS011;33808;37.368;127.108;2022-12-11T16:08:47;13.88;;;6.75;;
48028;SDS011;33808;37.368;127.108;2022-12-11T16:11:17;13.00;;;6.65;;
48028;SDS011;33808;37.368;127.108;2022-12-11T16:13:47;10.00;;;5.85;;
48028;SDS011;33808;37.368;127.108;2022-12-11T16:16:16;11.80;;;6.88;;
48028;SDS011;33808;37.368;127.108;2022-12-11T16:18:46;12.55;;;6.55;;
48028;SDS011;33808;37.368;127.108;2022-12-11T16:21:17;13.57;;;6.85;;
48028;SDS011;33808;37.368;127.108;2022-12-11T16:23:47;9.95;;;6.03;;
48028;SDS011;33808;37.368;127.108;2022-12-11T16:26:17;11.90;;;6.97;;
48028;SDS011;33808;37.368;127.108;2022-12-11T16:28:46;12.45;;;6.50;;
48028;SDS011;33808;37.368;127.108;2022-12-11T16:31:16;12.48;;;6.20;;
48028;SDS011;33808;37.368;127.108;2022-12-11T16:33:45;12.10;;;6.95;;
48028;SDS011;33808;37.368;127.108;2022-12-11T16:36:16;13.90;;;7.05;;
48028;SDS011;33808;37.368;127.108;2022-12-11T16:38:47;14.00;;;6.85;;
48028;SDS011;33808;37.368;127.108;2022-12-11T16:41:20;15.50;;;7.13;;
48028;SDS011;33808;37.368;127.108;2022-12-11T16:43:50;12.07;;;6.72;;
48028;SDS011;33808;37.368;127.108;2022-12-11T16:46:22;13.80;;;7.00;;
48028;SDS011;33808;37.368;127.108;2022-12-11T16:48:52;14.40;;;6.55;;
48028;SDS011;33808;37.368;127.108;2022-12-11T16:51:22;13.75;;;7.13;;